Terminal Aerodrome Forecast
Issued by NWS

Home | Current Version | Previous Version | Graphics & Text | Print | Product List | Glossary On
Versions: 1 2 3 4 5 6 7 8 9 10 11 12 13 14 15 16 17
000
FTUS43 KUNR 231100
TAFGCC
TAF
KGCC 231120Z 2312/2412 30015G25KT P6SM SCT150
     FM231600 31026G36KT P6SM BKN050
     FM240000 30011KT P6SM SCT250=

USA.gov is the U.S. government's official web portal to all federal, state and local government web resources and services.